Página principal
METAR-TAF:

METAR-TAF

Aeroportos :

Madrid-Cuatro Vientos, Espanha

latitude: 40-23N, longitude: 003-47W, altura: 690 m

Observação actual do tempo

O boletim foi feito há 39 minutos, às 07:00 UTC
Vento 3 kt com direcção variável
Temperatura 12°C
Humidade 62%
Pressão 1020 hPa
Visibilidade 10 km ou mais
sem nuvens abaixo de 1500 metros e sem cumulonimbus

METAR: LEVS 250700Z VRB03KT CAVOK 12/05 Q1020

Hora: 09:39 (07:39 UTC)

Previsão

O boletim foi feito há 2 horas e 39 minutos, às 05:00 UTC
Previsão válida de 25 às 06 UTC a 26 às 06 UTC
Vento 10 kt de norte
Visibilidade 10 km ou mais
sem nuvens abaixo de 1500 metros e sem cumulonimbus
Temporariamente
de 25 às 06 UTC a 25 às 10 UTC
Vento 5 kt com direcção variável
Probabilidade 30% :
Temporariamente
de 25 às 12 UTC a 25 às 22 UTC
Vento 15 kt de norte com rajadas de 25 kt

TAF: LEVS 250500Z 2506/2606 01010KT CAVOK TX24/2515Z TN06/2506Z TEMPO 2506/2510 VRB05KT PROB30 TEMPO 2512/2522 01015G25KT

Observações e previsões do tempo de mais de 4000 aeroportos (mensagens METAR e TAF).

As estações disponíveis são os pontos amarelos e vermelhos sobre o mapa.

Mova o rato sobre o mapa para ver o nome da estação.

Depois clique no ponto para visualizar as observações e previsões meteorológicas.

Para alterar o mapa : clique nos botões verdes com uma cruz preta para aumentar o zoom; no botão verde com uma pitada de zoom; ou nas setas verdes para mapas adjacentes.


METAR-TAF: